Time;durP1;ratioP1;P1;durP2;ratioP2;P2;SDS_P1;SDS_P2;PMS_P1;PMS_P2;Temp;Humidity;BMP_temperature;BMP_pressure;BME280_temperature;BME280_humidity;BME280_pressure;Samples;Min_cycle;Max_cycle;Signal;HPM_P1;HPM_P2
2023/12/26 00:00:49;;;;;;;4.97;2.63;;;9.40;99.90;;;;;;5009384;28;20045;-81
2023/12/26 00:03:15;;;;;;;4.13;2.28;;;9.50;99.90;;;;;;5013289;28;20493;-81
2023/12/26 00:05:41;;;;;;;3.08;2.50;;;9.50;99.90;;;;;;5011946;28;20897;-81
2023/12/26 00:08:07;;;;;;;2.97;2.10;;;9.50;99.90;;;;;;4996513;28;20042;-81
2023/12/26 00:10:34;;;;;;;2.80;2.10;;;9.50;99.90;;;;;;4995007;28;20114;-81
2023/12/26 00:13:01;;;;;;;3.05;2.00;;;9.50;99.90;;;;;;5008504;28;20044;-81
2023/12/26 00:15:27;;;;;;;2.42;2.05;;;9.50;99.90;;;;;;5008879;28;20374;-81
2023/12/26 00:17:53;;;;;;;3.17;1.90;;;9.50;99.90;;;;;;5009231;28;20069;-81
2023/12/26 00:20:19;;;;;;;3.25;2.05;;;9.50;99.90;;;;;;4993875;28;20195;-82
2023/12/26 00:22:45;;;;;;;3.55;2.22;;;9.50;99.90;;;;;;5010798;28;20631;-81
2023/12/26 00:25:11;;;;;;;2.95;1.88;;;9.50;99.90;;;;;;5009925;28;20045;-82
2023/12/26 00:27:39;;;;;;;3.25;2.45;;;9.60;99.90;;;;;;5007720;28;20033;-81
2023/12/26 00:30:07;;;;;;;3.60;2.20;;;9.50;99.90;;;;;;4995184;28;20173;-81
2023/12/26 00:32:34;;;;;;;2.47;2.20;;;9.60;99.90;;;;;;4995552;28;20037;-81
2023/12/26 00:35:03;;;;;;;3.65;2.30;;;9.50;99.90;;;;;;4994212;28;20508;-81
2023/12/26 00:37:29;;;;;;;4.78;2.30;;;9.50;99.90;;;;;;5014112;28;20045;-81
2023/12/26 00:39:55;;;;;;;3.10;2.00;;;9.60;99.90;;;;;;4999903;28;20033;-81
2023/12/26 00:42:20;;;;;;;3.67;1.92;;;9.60;99.90;;;;;;5013682;28;20372;-81
2023/12/26 00:44:46;;;;;;;2.20;2.00;;;9.60;99.90;;;;;;4993908;28;20041;-81
2023/12/26 00:47:12;;;;;;;3.80;2.22;;;9.60;99.90;;;;;;4993560;28;20672;-80
2023/12/26 00:49:37;;;;;;;1.90;1.42;;;9.60;99.90;;;;;;4996323;28;20034;-80
2023/12/26 00:52:03;;;;;;;2.83;1.85;;;9.60;99.90;;;;;;4995889;28;20037;-81
2023/12/26 00:54:29;;;;;;;3.47;1.77;;;9.70;99.90;;;;;;5007680;28;20247;-81
2023/12/26 00:56:55;;;;;;;2.47;1.70;;;9.70;99.90;;;;;;4996436;28;20045;-82
2023/12/26 00:59:20;;;;;;;3.53;1.60;;;9.70;99.90;;;;;;5008026;28;20441;-81
2023/12/26 01:01:46;;;;;;;3.38;1.65;;;9.70;99.90;;;;;;5010538;28;20041;-81
2023/12/26 01:04:12;;;;;;;2.80;1.40;;;9.70;99.90;;;;;;4994105;28;20077;-81
2023/12/26 01:06:38;;;;;;;2.65;1.42;;;9.70;99.90;;;;;;5011497;28;20265;-81
2023/12/26 01:09:03;;;;;;;2.17;1.40;;;9.80;99.90;;;;;;4994250;28;20060;-81
2023/12/26 01:11:29;;;;;;;1.90;1.33;;;9.80;99.90;;;;;;5012181;28;20050;-81
2023/12/26 01:13:55;;;;;;;3.22;1.33;;;9.70;99.90;;;;;;4992808;28;20079;-81
2023/12/26 01:16:25;;;;;;;2.10;0.88;;;9.70;99.90;;;;;;5007993;28;20283;-81
2023/12/26 01:18:51;;;;;;;4.25;1.10;;;9.70;99.90;;;;;;4992925;28;20053;-81
2023/12/26 01:21:16;;;;;;;3.55;1.15;;;9.70;99.90;;;;;;4995510;28;20672;-81
2023/12/26 01:23:42;;;;;;;3.60;0.90;;;9.70;99.90;;;;;;4993014;28;20207;-81
2023/12/26 01:26:08;;;;;;;5.13;1.20;;;9.70;99.90;;;;;;5010531;28;20096;-81
2023/12/26 01:28:34;;;;;;;1.42;0.90;;;9.70;99.90;;;;;;5012954;28;20162;-81
2023/12/26 01:31:00;;;;;;;1.98;0.85;;;9.70;99.90;;;;;;4992425;28;20137;-82
2023/12/26 01:33:26;;;;;;;5.18;1.25;;;9.70;99.90;;;;;;4995171;28;20058;-81
2023/12/26 01:35:51;;;;;;;3.70;1.00;;;9.70;99.90;;;;;;5005645;28;20163;-81
2023/12/26 01:38:17;;;;;;;3.60;0.90;;;9.70;99.90;;;;;;4995958;28;20052;-81
2023/12/26 01:40:43;;;;;;;3.92;1.08;;;9.70;99.90;;;;;;4994625;28;20037;-82
2023/12/26 01:43:09;;;;;;;4.75;1.17;;;9.70;99.90;;;;;;4994068;28;20077;-81
2023/12/26 01:45:34;;;;;;;9.68;1.55;;;9.60;99.90;;;;;;5009067;28;20460;-82
2023/12/26 01:48:01;;;;;;;3.47;1.35;;;9.70;99.90;;;;;;5011109;28;20080;-81
2023/12/26 01:50:27;;;;;;;3.92;1.30;;;9.70;99.90;;;;;;4996733;28;20049;-81
2023/12/26 01:52:54;;;;;;;6.47;1.40;;;9.70;99.90;;;;;;4993056;28;20040;-81
2023/12/26 01:55:21;;;;;;;9.98;1.55;;;9.70;99.90;;;;;;4996374;28;20346;-81
2023/12/26 01:57:48;;;;;;;6.32;1.50;;;9.70;99.90;;;;;;4997363;28;20139;-81
2023/12/26 02:00:14;;;;;;;6.85;1.38;;;9.70;99.90;;;;;;4994267;28;20401;-81
2023/12/26 02:02:42;;;;;;;9.27;1.77;;;9.70;99.90;;;;;;5004923;28;20057;-81
2023/12/26 02:05:09;;;;;;;8.52;1.73;;;9.70;99.90;;;;;;4994344;28;20079;-81
2023/12/26 02:07:35;;;;;;;9.32;1.92;;;9.70;99.90;;;;;;5008614;28;20041;-81
2023/12/26 02:10:03;;;;;;;13.50;1.85;;;9.70;99.90;;;;;;4987213;28;20107;-81
2023/12/26 02:12:29;;;;;;;10.38;1.60;;;9.70;99.90;;;;;;5010414;28;20065;-86
2023/12/26 02:14:57;;;;;;;8.95;1.77;;;9.70;99.90;;;;;;4991612;28;20069;-86
2023/12/26 02:17:25;;;;;;;5.95;1.40;;;9.70;99.90;;;;;;4978362;28;20072;-86
2023/12/26 02:19:51;;;;;;;6.82;1.92;;;9.70;99.90;;;;;;4991205;28;20049;-86
2023/12/26 02:22:17;;;;;;;11.35;1.95;;;9.70;99.90;;;;;;4991232;28;20460;-81
2023/12/26 02:24:44;;;;;;;14.10;2.25;;;9.70;99.90;;;;;;4980324;28;21006;-81
2023/12/26 02:27:22;;;;;;;12.23;2.00;;;9.70;99.90;;;;;;4994129;28;20203;-81
2023/12/26 02:29:51;;;;;;;14.32;1.92;;;9.70;99.90;;;;;;4988110;28;20040;-81
2023/12/26 02:32:23;;;;;;;9.60;1.88;;;9.70;99.90;;;;;;4996842;28;20460;-82
2023/12/26 02:34:54;;;;;;;12.38;2.30;;;9.70;99.90;;;;;;4999244;28;21065;-81
2023/12/26 02:37:21;;;;;;;11.75;2.13;;;9.70;99.90;;;;;;4976126;28;20096;-81
2023/12/26 02:39:49;;;;;;;9.18;1.77;;;9.70;99.90;;;;;;4979074;28;20037;-81
2023/12/26 02:42:17;;;;;;;8.57;1.90;;;9.60;99.90;;;;;;4976329;28;20072;-81
2023/12/26 02:44:42;;;;;;;11.23;2.35;;;9.60;99.90;;;;;;4978643;28;20504;-81
2023/12/26 02:47:09;;;;;;;11.57;2.17;;;9.60;99.90;;;;;;4976099;28;20041;-81
2023/12/26 02:49:35;;;;;;;9.98;2.28;;;9.60;99.90;;;;;;4976564;28;20041;-81
2023/12/26 02:52:01;;;;;;;11.10;2.47;;;9.60;99.90;;;;;;4994735;28;20137;-82
2023/12/26 02:54:27;;;;;;;16.45;2.28;;;9.40;99.90;;;;;;4992423;28;20041;-81
2023/12/26 02:56:53;;;;;;;13.60;2.78;;;9.40;99.90;;;;;;4992074;28;20092;-81
2023/12/26 02:59:19;;;;;;;12.35;2.60;;;9.40;99.90;;;;;;4992347;28;20459;-81
2023/12/26 03:01:45;;;;;;;8.25;2.45;;;9.40;99.90;;;;;;4990755;28;20061;-81
2023/12/26 03:04:11;;;;;;;11.82;2.53;;;9.30;99.90;;;;;;5010696;28;20042;-81
2023/12/26 03:06:37;;;;;;;10.13;2.30;;;9.30;99.90;;;;;;4981415;28;20132;-81
2023/12/26 03:09:02;;;;;;;9.43;1.77;;;9.30;99.90;;;;;;4980577;28;20059;-81
2023/12/26 03:11:28;;;;;;;8.77;2.42;;;9.20;99.90;;;;;;4994812;28;21218;-81
2023/12/26 03:13:54;;;;;;;8.82;2.08;;;9.20;99.90;;;;;;5006665;28;20050;-81
2023/12/26 03:16:21;;;;;;;10.88;2.33;;;9.20;99.90;;;;;;4992888;28;20414;-81
2023/12/26 03:18:47;;;;;;;11.32;2.63;;;9.20;99.90;;;;;;4991290;28;20045;-81
2023/12/26 03:21:13;;;;;;;10.23;2.50;;;9.20;99.90;;;;;;5005992;28;20156;-81
2023/12/26 03:23:39;;;;;;;7.97;1.77;;;9.20;99.90;;;;;;4993566;28;20487;-80
2023/12/26 03:26:06;;;;;;;14.00;2.45;;;9.20;99.90;;;;;;5007918;28;20287;-81
2023/12/26 03:28:32;;;;;;;11.93;2.20;;;9.20;99.90;;;;;;4992947;28;20148;-81
2023/12/26 03:30:58;;;;;;;10.05;2.20;;;9.20;99.90;;;;;;4992574;28;20140;-81
2023/12/26 03:33:24;;;;;;;10.73;2.03;;;9.20;99.90;;;;;;4993850;28;20117;-81
2023/12/26 03:35:49;;;;;;;8.02;1.75;;;9.10;99.90;;;;;;5007360;28;20033;-81
2023/12/26 03:38:15;;;;;;;9.15;2.00;;;9.10;99.90;;;;;;4994023;28;20378;-81
2023/12/26 03:40:41;;;;;;;11.80;2.42;;;9.00;99.90;;;;;;5012003;28;20057;-81
2023/12/26 03:43:06;;;;;;;13.20;2.35;;;8.90;99.90;;;;;;4993988;28;20380;-81
2023/12/26 03:45:32;;;;;;;11.57;2.35;;;9.00;99.90;;;;;;5008976;28;20234;-81
2023/12/26 03:47:58;;;;;;;13.48;2.67;;;9.00;99.90;;;;;;5006891;28;20416;-80
2023/12/26 03:50:26;;;;;;;8.30;2.45;;;8.90;99.90;;;;;;5008111;28;20055;-81
2023/12/26 03:52:52;;;;;;;7.20;1.92;;;8.80;99.90;;;;;;5022796;28;20129;-81
2023/12/26 03:55:17;;;;;;;15.70;3.08;;;8.80;99.90;;;;;;4996335;28;20191;-81
2023/12/26 03:57:43;;;;;;;11.32;2.70;;;8.70;99.90;;;;;;4989915;28;20444;-81
2023/12/26 04:00:09;;;;;;;10.85;2.47;;;8.70;99.90;;;;;;4994304;28;20090;-81
2023/12/26 04:02:36;;;;;;;13.15;2.70;;;8.50;99.90;;;;;;4994425;28;20073;-81
2023/12/26 04:05:02;;;;;;;9.02;3.10;;;8.60;99.90;;;;;;5014699;28;20485;-80
2023/12/26 04:07:28;;;;;;;11.68;2.30;;;8.70;99.90;;;;;;5010969;28;20046;-81
2023/12/26 04:09:53;;;;;;;13.90;3.05;;;8.50;99.90;;;;;;4993462;28;20053;-80
2023/12/26 04:12:19;;;;;;;14.95;2.80;;;8.40;99.90;;;;;;5012123;28;20049;-81
2023/12/26 04:14:45;;;;;;;9.32;2.70;;;8.50;99.90;;;;;;4993096;28;20215;-80
2023/12/26 04:17:11;;;;;;;12.23;2.20;;;8.40;99.90;;;;;;4993588;28;20033;-81
2023/12/26 04:19:36;;;;;;;15.98;2.65;;;8.30;99.90;;;;;;4993120;28;20041;-81
2023/12/26 04:22:02;;;;;;;12.07;2.78;;;8.20;99.90;;;;;;4995399;28;20044;-81
2023/12/26 04:24:28;;;;;;;8.43;2.45;;;8.20;99.90;;;;;;4993906;28;20532;-81
2023/12/26 04:26:53;;;;;;;12.07;2.75;;;8.20;99.90;;;;;;4995725;28;21575;-81
2023/12/26 04:29:19;;;;;;;13.82;2.67;;;8.20;99.90;;;;;;5011559;28;20397;-81
2023/12/26 04:31:45;;;;;;;25.80;3.53;;;8.20;99.90;;;;;;5008871;28;20128;-81
2023/12/26 04:34:11;;;;;;;11.70;2.80;;;8.10;99.90;;;;;;4994940;28;20496;-81
2023/12/26 04:36:36;;;;;;;16.63;3.50;;;7.90;99.90;;;;;;5011567;28;20425;-80
2023/12/26 04:39:04;;;;;;;17.65;3.28;;;7.90;99.90;;;;;;4996495;28;20560;-80
2023/12/26 04:41:31;;;;;;;11.98;2.47;;;8.00;99.90;;;;;;4994786;28;20061;-81
2023/12/26 04:43:56;;;;;;;13.52;2.83;;;8.00;99.90;;;;;;5013010;28;20049;-80
2023/12/26 04:46:22;;;;;;;14.50;4.22;;;8.00;99.90;;;;;;5010438;28;20520;-81
2023/12/26 04:48:48;;;;;;;14.15;2.65;;;7.90;99.90;;;;;;5013835;28;20204;-80
2023/12/26 04:51:17;;;;;;;16.48;3.53;;;7.80;99.90;;;;;;4996593;28;20049;-81
2023/12/26 04:53:45;;;;;;;13.00;2.97;;;7.90;99.90;;;;;;4995941;28;20144;-80
2023/12/26 04:56:21;;;;;;;14.77;3.53;;;7.80;99.90;;;;;;5013732;28;20049;-80
2023/12/26 04:58:48;;;;;;;11.88;2.80;;;7.80;99.90;;;;;;5015067;28;20045;-80
2023/12/26 05:01:15;;;;;;;13.45;3.22;;;7.70;99.90;;;;;;5012393;28;20054;-81
2023/12/26 05:03:41;;;;;;;14.18;2.63;;;7.80;99.90;;;;;;4994484;28;20429;-80
2023/12/26 05:06:06;;;;;;;13.88;2.97;;;7.90;99.90;;;;;;5014061;28;20068;-81
2023/12/26 05:08:32;;;;;;;19.05;3.60;;;7.90;99.90;;;;;;4998181;28;20464;-81
2023/12/26 05:10:58;;;;;;;13.82;2.80;;;7.80;99.90;;;;;;4961765;28;20041;-81
2023/12/26 05:13:24;;;;;;;15.32;3.03;;;7.90;99.90;;;;;;4961897;28;20049;-80
2023/12/26 05:15:50;;;;;;;17.35;2.90;;;7.90;99.90;;;;;;4956799;28;20266;-81
2023/12/26 05:18:16;;;;;;;14.13;2.70;;;7.90;99.90;;;;;;4959553;28;20315;-81
2023/12/26 05:20:41;;;;;;;13.23;2.78;;;7.90;99.90;;;;;;4962659;28;20038;-80
2023/12/26 05:23:07;;;;;;;11.40;2.40;;;7.90;99.90;;;;;;4992035;28;20052;-81
2023/12/26 05:25:33;;;;;;;12.75;2.50;;;7.90;99.90;;;;;;4960637;28;20095;-80
2023/12/26 05:27:59;;;;;;;16.27;2.47;;;8.00;99.90;;;;;;4961037;28;20046;-80
2023/12/26 05:30:24;;;;;;;11.90;2.50;;;8.00;99.90;;;;;;4973322;28;20058;-81
2023/12/26 05:32:50;;;;;;;12.77;2.28;;;8.00;99.90;;;;;;4980455;28;20045;-81
2023/12/26 05:35:16;;;;;;;15.00;2.80;;;8.10;99.90;;;;;;4975263;28;20041;-81
2023/12/26 05:37:42;;;;;;;9.65;2.30;;;8.20;99.90;;;;;;4970879;28;20239;-81
2023/12/26 05:40:08;;;;;;;9.98;2.50;;;8.20;99.90;;;;;;4961974;28;20049;-80
2023/12/26 05:42:34;;;;;;;15.25;3.17;;;8.20;99.90;;;;;;4975326;28;20482;-80
2023/12/26 05:44:59;;;;;;;19.73;2.80;;;8.20;99.90;;;;;;4977965;28;20135;-81
2023/12/26 05:47:25;;;;;;;12.38;2.47;;;8.20;99.90;;;;;;4964193;28;20041;-81
2023/12/26 05:49:53;;;;;;;13.13;2.92;;;8.20;99.90;;;;;;4975901;28;20052;-81
2023/12/26 05:52:19;;;;;;;13.27;2.60;;;8.30;99.90;;;;;;4962191;28;20038;-81
2023/12/26 05:54:44;;;;;;;8.30;2.45;;;8.40;99.90;;;;;;4961098;28;20046;-81
2023/12/26 05:57:10;;;;;;;12.15;2.90;;;8.30;99.90;;;;;;4958736;28;20162;-80
2023/12/26 05:59:36;;;;;;;9.10;1.95;;;8.40;99.90;;;;;;4959610;28;20365;-81
2023/12/26 06:02:02;;;;;;;11.10;2.33;;;8.50;99.90;;;;;;4974128;28;20046;-80
2023/12/26 06:04:27;;;;;;;9.20;2.17;;;8.40;99.90;;;;;;4993275;28;20068;-81
2023/12/26 06:06:53;;;;;;;11.68;2.72;;;8.40;99.90;;;;;;4961198;28;20050;-81
2023/12/26 06:09:19;;;;;;;7.78;2.03;;;8.50;99.90;;;;;;4974898;28;20053;-85
2023/12/26 06:11:44;;;;;;;8.57;1.90;;;8.50;99.90;;;;;;4994641;28;20046;-85
2023/12/26 06:14:11;;;;;;;17.40;4.05;;;8.60;99.90;;;;;;4995193;28;20288;-84
2023/12/26 06:16:36;;;;;;;10.30;2.35;;;8.50;99.90;;;;;;5013215;28;20048;-84
2023/12/26 06:19:02;;;;;;;11.15;2.45;;;8.50;99.90;;;;;;5013329;28;20049;-85
2023/12/26 06:21:28;;;;;;;13.00;2.42;;;8.50;99.90;;;;;;5009076;28;20093;-85
2023/12/26 06:23:53;;;;;;;10.07;2.92;;;8.50;99.90;;;;;;4993737;28;20049;-85
2023/12/26 06:26:19;;;;;;;12.70;2.75;;;8.60;99.90;;;;;;4997553;28;20060;-85
2023/12/26 06:28:45;;;;;;;12.45;2.92;;;8.60;99.90;;;;;;4999751;28;20590;-85
2023/12/26 06:31:13;;;;;;;13.30;2.85;;;8.60;99.90;;;;;;4996393;28;20045;-85
2023/12/26 06:33:39;;;;;;;10.23;2.33;;;8.50;99.90;;;;;;5011188;28;20060;-85
2023/12/26 06:36:06;;;;;;;8.77;2.67;;;8.50;99.90;;;;;;5014882;28;20501;-85
2023/12/26 06:38:32;;;;;;;11.27;2.60;;;8.30;99.90;;;;;;4994970;28;20048;-85
2023/12/26 06:40:57;;;;;;;11.25;3.22;;;8.30;99.90;;;;;;5014176;28;20041;-85
2023/12/26 06:43:27;;;;;;;13.07;2.88;;;8.20;99.90;;;;;;4996391;28;20060;-85
2023/12/26 06:45:54;;;;;;;11.75;3.13;;;8.30;99.90;;;;;;5010151;28;20523;-85
2023/12/26 06:48:20;;;;;;;10.02;2.80;;;8.30;99.90;;;;;;4992106;28;20061;-85
2023/12/26 06:50:46;;;;;;;12.60;2.55;;;8.20;99.90;;;;;;4993690;28;20072;-85
2023/12/26 06:53:11;;;;;;;15.75;2.70;;;8.30;99.90;;;;;;4993923;28;20041;-84
2023/12/26 06:55:37;;;;;;;12.05;2.47;;;8.30;99.90;;;;;;4992674;28;20468;-85
2023/12/26 06:58:04;;;;;;;11.05;2.90;;;8.30;99.90;;;;;;5012580;28;20042;-85
2023/12/26 07:00:30;;;;;;;13.02;2.78;;;8.30;99.90;;;;;;5006322;28;20138;-85
2023/12/26 07:02:55;;;;;;;14.40;3.00;;;8.40;99.90;;;;;;5010439;28;20496;-85
2023/12/26 07:05:21;;;;;;;11.52;3.25;;;8.40;99.90;;;;;;5011129;28;20041;-85
2023/12/26 07:07:48;;;;;;;14.18;3.17;;;8.50;99.90;;;;;;4995479;28;20346;-85
2023/12/26 07:10:13;;;;;;;9.25;2.60;;;8.50;99.90;;;;;;5007688;28;20156;-85
2023/12/26 07:12:39;;;;;;;13.65;2.72;;;8.50;99.90;;;;;;4995245;28;20059;-85
2023/12/26 07:15:06;;;;;;;11.88;2.60;;;8.50;99.90;;;;;;5009571;28;20030;-85
2023/12/26 07:17:32;;;;;;;16.83;2.70;;;8.50;99.90;;;;;;4994175;28;20203;-85
2023/12/26 07:19:58;;;;;;;13.73;3.00;;;8.50;99.90;;;;;;5008473;28;20041;-86
2023/12/26 07:22:24;;;;;;;15.07;3.03;;;8.50;99.90;;;;;;4995628;28;20052;-85
2023/12/26 07:24:50;;;;;;;14.57;2.63;;;8.50;99.90;;;;;;4995707;28;20121;-85
2023/12/26 07:27:16;;;;;;;10.88;2.92;;;8.50;99.90;;;;;;5013688;28;20095;-85
2023/12/26 07:29:41;;;;;;;15.13;2.75;;;8.50;99.90;;;;;;5009854;28;20689;-85
2023/12/26 07:32:07;;;;;;;10.88;2.63;;;8.50;99.90;;;;;;4988577;28;20388;-86
2023/12/26 07:34:33;;;;;;;10.45;2.80;;;8.50;99.90;;;;;;4996820;28;20345;-84
2023/12/26 07:36:58;;;;;;;17.52;3.13;;;8.50;99.90;;;;;;4996742;28;20037;-84
2023/12/26 07:39:24;;;;;;;23.90;3.22;;;8.50;99.90;;;;;;4991519;28;20384;-85
2023/12/26 07:41:50;;;;;;;12.88;2.92;;;8.50;99.90;;;;;;4994429;28;20129;-85
2023/12/26 07:44:16;;;;;;;15.10;2.97;;;8.50;99.90;;;;;;4994634;28;20053;-84
2023/12/26 07:46:42;;;;;;;11.85;2.90;;;8.50;99.90;;;;;;4994398;28;20111;-85
2023/12/26 07:49:08;;;;;;;11.75;2.53;;;8.50;99.90;;;;;;4991979;28;20676;-86
2023/12/26 07:51:34;;;;;;;13.27;3.10;;;8.50;99.90;;;;;;4994964;28;20045;-85
2023/12/26 07:54:00;;;;;;;12.02;3.00;;;8.50;99.90;;;;;;5007790;28;20060;-85
2023/12/26 07:56:26;;;;;;;13.90;3.05;;;8.50;99.90;;;;;;5007405;28;20045;-84
2023/12/26 07:58:55;;;;;;;15.80;2.90;;;8.60;99.90;;;;;;4990293;28;20052;-85
2023/12/26 08:01:24;;;;;;;13.55;2.97;;;8.50;99.90;;;;;;5008375;28;20462;-85
2023/12/26 08:03:50;;;;;;;12.55;2.95;;;8.50;99.90;;;;;;5006065;28;20052;-85
2023/12/26 08:06:16;;;;;;;14.65;2.78;;;8.50;99.90;;;;;;5008005;28;20311;-86
2023/12/26 08:08:42;;;;;;;13.57;2.67;;;8.50;99.90;;;;;;5007099;28;20053;-84
2023/12/26 08:11:08;;;;;;;14.07;2.97;;;8.50;99.90;;;;;;4990991;28;20037;-85
2023/12/26 08:13:33;;;;;;;16.75;3.03;;;8.50;99.90;;;;;;4997833;28;20060;-84
2023/12/26 08:15:59;;;;;;;15.93;3.15;;;8.50;99.90;;;;;;4997460;28;20115;-85
2023/12/26 08:18:25;;;;;;;13.93;3.40;;;8.50;99.90;;;;;;5011058;28;20572;-85
2023/12/26 08:20:54;;;;;;;14.25;2.85;;;8.50;99.90;;;;;;4996898;28;20037;-85
2023/12/26 08:23:20;;;;;;;11.90;2.72;;;8.50;99.90;;;;;;4999430;28;20033;-85
2023/12/26 08:25:46;;;;;;;11.88;2.70;;;8.50;99.90;;;;;;4996162;28;21052;-85
2023/12/26 08:28:12;;;;;;;10.52;2.53;;;8.40;99.90;;;;;;5011542;28;20053;-86
2023/12/26 08:30:39;;;;;;;13.80;2.83;;;8.50;99.90;;;;;;5010580;28;20094;-85
2023/12/26 08:33:05;;;;;;;13.90;2.72;;;8.50;99.90;;;;;;4995195;28;20573;-85
2023/12/26 08:35:31;;;;;;;22.00;3.25;;;8.50;99.90;;;;;;4993323;28;20199;-86
2023/12/26 08:37:57;;;;;;;14.45;3.35;;;8.50;99.90;;;;;;4995570;28;20056;-85
2023/12/26 08:40:23;;;;;;;11.35;2.53;;;8.60;99.90;;;;;;5014605;28;20764;-84
2023/12/26 08:42:48;;;;;;;11.38;2.20;;;8.60;99.90;;;;;;4997911;28;20508;-85
2023/12/26 08:45:14;;;;;;;10.05;2.72;;;8.60;99.90;;;;;;4996211;28;20049;-85
2023/12/26 08:47:40;;;;;;;15.63;3.65;;;8.60;99.90;;;;;;4996079;28;20179;-85
2023/12/26 08:50:06;;;;;;;12.60;3.22;;;8.60;99.90;;;;;;4996197;28;20072;-85
2023/12/26 08:52:32;;;;;;;15.23;2.83;;;8.60;99.90;;;;;;4996196;28;20076;-81
2023/12/26 08:54:58;;;;;;;13.88;3.17;;;8.60;99.90;;;;;;4995914;28;20061;-80
2023/12/26 08:57:24;;;;;;;11.98;3.03;;;8.60;99.90;;;;;;4994375;28;20071;-81
2023/12/26 08:59:50;;;;;;;13.73;3.42;;;8.60;99.90;;;;;;5013814;28;20180;-80
2023/12/26 09:02:16;;;;;;;12.10;2.83;;;8.60;99.90;;;;;;4996168;28;20049;-81
2023/12/26 09:04:41;;;;;;;14.55;2.58;;;8.60;99.90;;;;;;5011747;28;20536;-80
2023/12/26 09:07:07;;;;;;;10.85;2.25;;;8.60;99.90;;;;;;5011743;28;21115;-81
2023/12/26 09:09:34;;;;;;;10.13;2.55;;;8.60;99.90;;;;;;4997198;28;20578;-81
2023/12/26 09:12:00;;;;;;;18.40;3.33;;;8.60;99.90;;;;;;5016607;28;20725;-80
2023/12/26 09:14:25;;;;;;;14.70;2.40;;;8.60;99.90;;;;;;5011865;28;20560;-80
2023/12/26 09:16:51;;;;;;;15.73;2.80;;;8.60;99.90;;;;;;5010877;28;20041;-80
2023/12/26 09:19:17;;;;;;;18.10;2.63;;;8.60;99.90;;;;;;4987557;28;20080;-80
2023/12/26 09:21:43;;;;;;;12.20;2.90;;;8.60;99.90;;;;;;4986722;28;20444;-86
2023/12/26 09:24:09;;;;;;;13.43;2.70;;;8.60;99.90;;;;;;4996950;28;20520;-85
2023/12/26 09:26:35;;;;;;;12.50;2.63;;;8.70;99.90;;;;;;5010036;28;20064;-86
2023/12/26 09:29:01;;;;;;;13.63;2.55;;;8.70;99.90;;;;;;5009312;28;20041;-85
2023/12/26 09:31:26;;;;;;;9.10;2.20;;;8.70;99.90;;;;;;5009523;28;20610;-86
2023/12/26 09:33:52;;;;;;;13.63;2.38;;;8.70;99.90;;;;;;4995788;28;20130;-86
2023/12/26 09:36:18;;;;;;;15.50;2.78;;;8.70;99.90;;;;;;5010958;28;20064;-86
2023/12/26 09:38:43;;;;;;;11.30;2.88;;;8.70;99.90;;;;;;5009153;28;20384;-86
2023/12/26 09:41:13;;;;;;;15.15;2.25;;;8.70;99.90;;;;;;5010195;28;20045;-85
2023/12/26 09:43:40;;;;;;;16.20;2.97;;;8.70;99.90;;;;;;5029050;28;20056;-86
2023/12/26 09:46:07;;;;;;;19.10;2.85;;;8.70;99.90;;;;;;4990164;28;20160;-85
2023/12/26 09:48:33;;;;;;;8.73;2.70;;;8.70;99.90;;;;;;5011731;28;20670;-86
2023/12/26 09:51:03;;;;;;;11.85;2.42;;;8.70;99.90;;;;;;4999274;28;20033;-86
2023/12/26 09:53:32;;;;;;;13.13;2.33;;;8.70;99.90;;;;;;5011284;28;20125;-86
2023/12/26 09:55:58;;;;;;;10.77;2.92;;;8.80;99.90;;;;;;4995090;28;20074;-86
2023/12/26 09:58:25;;;;;;;10.45;2.45;;;8.80;99.90;;;;;;4994829;28;20071;-86
2023/12/26 10:00:53;;;;;;;11.68;2.20;;;8.80;99.90;;;;;;4992379;28;20505;-85
2023/12/26 10:03:19;;;;;;;16.92;3.15;;;8.80;99.90;;;;;;4995243;28;20325;-86
2023/12/26 10:05:45;;;;;;;10.32;2.97;;;8.90;99.90;;;;;;5012085;28;20069;-82
2023/12/26 10:08:11;;;;;;;12.65;2.45;;;8.90;99.90;;;;;;4999768;28;20681;-82
2023/12/26 10:10:37;;;;;;;14.30;3.15;;;9.10;99.90;;;;;;4994987;28;20048;-81
2023/12/26 10:13:03;;;;;;;13.30;2.80;;;9.20;99.90;;;;;;5009412;28;20052;-82
2023/12/26 10:15:28;;;;;;;12.25;2.97;;;9.20;99.90;;;;;;5008617;28;20119;-82
2023/12/26 10:17:55;;;;;;;10.95;2.72;;;9.20;99.90;;;;;;5026367;28;20228;-82
2023/12/26 10:20:21;;;;;;;14.82;2.72;;;9.30;99.90;;;;;;4997297;28;20485;-81
2023/12/26 10:22:47;;;;;;;8.35;3.03;;;9.30;99.90;;;;;;4992823;28;20052;-82
2023/12/26 10:25:14;;;;;;;13.18;3.05;;;9.30;99.90;;;;;;5009737;28;21621;-82
2023/12/26 10:27:40;;;;;;;14.55;2.75;;;9.40;99.90;;;;;;5006462;28;20147;-82
2023/12/26 10:30:07;;;;;;;23.98;3.40;;;9.40;99.90;;;;;;5008694;28;20046;-81
2023/12/26 10:32:33;;;;;;;16.40;3.20;;;9.40;99.90;;;;;;5009581;28;20065;-82
2023/12/26 10:35:15;;;;;;;8.20;2.60;;;9.40;99.90;;;;;;4993119;28;20513;-81
2023/12/26 10:37:42;;;;;;;19.27;3.70;;;9.30;99.90;;;;;;4993729;28;20566;-82
2023/12/26 10:40:09;;;;;;;14.02;2.72;;;9.30;99.90;;;;;;5006909;28;20041;-81
2023/12/26 10:42:39;;;;;;;7.18;2.20;;;9.10;99.90;;;;;;4993831;28;20034;-82
2023/12/26 10:45:06;;;;;;;17.83;3.40;;;9.10;99.90;;;;;;5006335;28;20168;-80
2023/12/26 10:47:33;;;;;;;13.13;3.03;;;9.10;99.90;;;;;;4993206;28;20069;-80
2023/12/26 10:50:02;;;;;;;15.88;2.95;;;9.00;99.90;;;;;;5006799;28;20048;-81
2023/12/26 10:52:29;;;;;;;22.80;3.42;;;9.10;99.90;;;;;;5008214;28;20064;-81
2023/12/26 10:55:03;;;;;;;13.20;2.78;;;9.00;99.90;;;;;;5008082;28;20057;-80
2023/12/26 10:57:32;;;;;;;7.90;2.40;;;9.20;99.90;;;;;;5007087;28;20453;-80
2023/12/26 13:53:52;;;;;;;6.13;1.30;;;8.30;99.90;;;;;;5015983;28;20266;-81
2023/12/26 13:56:55;;;;;;;5.85;1.45;;;8.30;99.90;;;;;;4987282;28;20037;-80
2023/12/26 13:59:59;;;;;;;6.07;1.05;;;8.20;99.90;;;;;;5007120;28;20237;-80
2023/12/26 14:03:02;;;;;;;4.05;1.17;;;8.20;99.90;;;;;;5010518;28;20087;-80
2023/12/26 14:06:06;;;;;;;4.78;0.90;;;8.20;99.90;;;;;;5027153;28;20036;-80
2023/12/26 14:09:10;;;;;;;4.50;1.15;;;8.20;99.90;;;;;;5003822;28;20033;-80
2023/12/26 14:12:13;;;;;;;6.28;1.30;;;8.10;99.90;;;;;;5014229;28;20052;-80
2023/12/26 14:15:16;;;;;;;4.70;1.35;;;8.00;99.90;;;;;;4996193;28;20116;-80
2023/12/26 14:18:20;;;;;;;5.72;1.05;;;7.90;99.90;;;;;;5006669;28;20495;-80
2023/12/26 14:21:24;;;;;;;6.45;1.35;;;7.90;99.90;;;;;;4997223;28;20029;-81
2023/12/26 14:24:27;;;;;;;3.75;0.98;;;7.90;99.90;;;;;;5015764;28;20051;-84
2023/12/26 14:27:31;;;;;;;6.78;1.33;;;7.80;99.90;;;;;;4996297;28;20055;-85
2023/12/26 14:30:35;;;;;;;5.68;1.00;;;7.80;99.90;;;;;;4996369;28;20044;-84
2023/12/26 14:33:41;;;;;;;3.08;1.15;;;7.80;99.90;;;;;;5029753;28;21104;-85
2023/12/26 14:36:45;;;;;;;6.57;1.40;;;7.80;99.90;;;;;;5001819;28;20511;-85
2023/12/26 14:39:49;;;;;;;10.68;1.73;;;7.60;99.90;;;;;;5014628;28;20052;-84
2023/12/26 14:42:55;;;;;;;6.97;1.25;;;7.50;99.90;;;;;;5028382;28;20118;-85
2023/12/26 14:45:58;;;;;;;9.65;1.52;;;7.40;99.90;;;;;;5015724;28;20478;-86
2023/12/26 14:49:02;;;;;;;7.10;1.77;;;7.40;99.90;;;;;;5002409;28;20048;-85
2023/12/26 14:52:06;;;;;;;9.13;1.50;;;7.30;99.90;;;;;;5030716;28;20041;-85
2023/12/26 14:55:09;;;;;;;6.80;1.67;;;7.20;99.90;;;;;;5017327;28;20048;-84
2023/12/26 14:58:12;;;;;;;8.55;1.17;;;7.30;99.90;;;;;;5010863;28;20068;-84
2023/12/26 15:01:16;;;;;;;10.32;1.52;;;7.20;99.90;;;;;;5011297;28;20041;-84
2023/12/26 15:03:42;;;;;;;6.75;1.83;;;7.20;99.90;;;;;;5010713;28;20045;-86
2023/12/26 15:06:15;;;;;;;4.15;1.30;;;7.20;99.90;;;;;;5014483;28;20094;-85
2023/12/26 15:08:40;;;;;;;9.38;1.65;;;7.20;99.90;;;;;;5009280;28;20079;-84
2023/12/26 15:11:13;;;;;;;10.85;1.60;;;7.30;99.90;;;;;;5007219;28;20045;-85
2023/12/26 15:13:39;;;;;;;9.90;1.42;;;7.30;99.90;;;;;;4999165;28;20273;-84
2023/12/26 15:16:17;;;;;;;6.07;1.23;;;7.20;99.90;;;;;;5007429;28;20049;-86
2023/12/26 15:18:46;;;;;;;5.68;1.38;;;7.20;99.90;;;;;;5010310;28;20120;-85
2023/12/26 15:21:12;;;;;;;8.05;1.35;;;7.20;99.90;;;;;;4999210;28;20072;-85
2023/12/26 15:23:37;;;;;;;6.30;1.60;;;7.20;99.90;;;;;;5000664;28;20044;-85
2023/12/26 15:26:12;;;;;;;9.52;1.83;;;7.20;99.90;;;;;;5013417;28;20041;-85
2023/12/26 15:28:40;;;;;;;6.32;1.60;;;7.10;99.90;;;;;;4995124;28;20070;-84
2023/12/26 15:31:14;;;;;;;7.80;1.50;;;7.10;99.90;;;;;;5017828;28;20131;-84
2023/12/26 15:33:43;;;;;;;8.82;1.50;;;7.00;99.90;;;;;;5015391;28;20067;-85
2023/12/26 15:36:20;;;;;;;8.90;1.48;;;7.00;99.90;;;;;;5003151;28;20905;-85
2023/12/26 15:38:46;;;;;;;7.97;1.60;;;7.10;99.90;;;;;;4986786;28;20037;-85
2023/12/26 15:41:13;;;;;;;6.15;1.48;;;7.00;99.90;;;;;;5016344;28;20412;-86
2023/12/26 15:43:39;;;;;;;4.32;1.30;;;7.00;99.90;;;;;;4986899;28;20084;-85
2023/12/26 15:46:14;;;;;;;9.05;1.50;;;7.00;99.90;;;;;;5003325;28;20044;-85
2023/12/26 15:48:40;;;;;;;6.75;1.65;;;6.90;99.90;;;;;;4994651;28;20053;-85
2023/12/26 15:51:05;;;;;;;7.47;1.70;;;6.80;99.90;;;;;;5008230;28;20369;-85
2023/12/26 15:53:31;;;;;;;11.20;1.85;;;6.70;99.90;;;;;;5009449;28;20252;-85